sensor_id;sensor_type;location;lat;lon;timestamp;temperature;humidity
18753;DHT22;9505;50.882;5.350;2022-12-24T00:00:29;11.30;99.90
18753;DHT22;9505;50.882;5.350;2022-12-24T00:02:55;11.20;99.90
18753;DHT22;9505;50.882;5.350;2022-12-24T00:05:20;11.20;99.90
18753;DHT22;9505;50.882;5.350;2022-12-24T00:07:46;11.10;99.90
18753;DHT22;9505;50.882;5.350;2022-12-24T00:10:12;11.10;99.90
18753;DHT22;9505;50.882;5.350;2022-12-24T00:12:37;11.20;99.90
18753;DHT22;9505;50.882;5.350;2022-12-24T00:15:04;11.10;99.90
18753;DHT22;9505;50.882;5.350;2022-12-24T00:17:30;11.10;99.90
18753;DHT22;9505;50.882;5.350;2022-12-24T00:19:56;11.10;99.90
18753;DHT22;9505;50.882;5.350;2022-12-24T00:22:22;11.10;99.90
18753;DHT22;9505;50.882;5.350;2022-12-24T00:24:47;11.10;99.90
18753;DHT22;9505;50.882;5.350;2022-12-24T00:27:13;11.10;99.90
18753;DHT22;9505;50.882;5.350;2022-12-24T00:29:38;11.10;99.90
18753;DHT22;9505;50.882;5.350;2022-12-24T00:32:04;11.00;99.90
18753;DHT22;9505;50.882;5.350;2022-12-24T00:34:37;11.00;99.90
18753;DHT22;9505;50.882;5.350;2022-12-24T00:37:04;10.90;99.90
18753;DHT22;9505;50.882;5.350;2022-12-24T00:39:32;10.90;99.90
18753;DHT22;9505;50.882;5.350;2022-12-24T00:41:57;10.80;99.90
18753;DHT22;9505;50.882;5.350;2022-12-24T00:44:23;10.80;99.90
18753;DHT22;9505;50.882;5.350;2022-12-24T00:46:49;10.80;99.90
18753;DHT22;9505;50.882;5.350;2022-12-24T00:49:15;10.70;99.90
18753;DHT22;9505;50.882;5.350;2022-12-24T00:51:41;10.70;99.90
18753;DHT22;9505;50.882;5.350;2022-12-24T00:54:07;10.70;99.90
18753;DHT22;9505;50.882;5.350;2022-12-24T00:56:32;10.70;99.90
18753;DHT22;9505;50.882;5.350;2022-12-24T00:58:58;10.70;99.90
18753;DHT22;9505;50.882;5.350;2022-12-24T01:01:24;10.70;99.90
18753;DHT22;9505;50.882;5.350;2022-12-24T01:03:50;10.80;99.90
18753;DHT22;9505;50.882;5.350;2022-12-24T01:06:18;10.80;99.90
18753;DHT22;9505;50.882;5.350;2022-12-24T01:08:44;10.90;99.90
18753;DHT22;9505;50.882;5.350;2022-12-24T01:11:11;10.90;99.90
18753;DHT22;9505;50.882;5.350;2022-12-24T01:13:37;11.00;99.90
18753;DHT22;9505;50.882;5.350;2022-12-24T01:16:10;11.00;99.90
18753;DHT22;9505;50.882;5.350;2022-12-24T01:18:37;11.00;99.90
18753;DHT22;9505;50.882;5.350;2022-12-24T01:21:03;11.00;99.90
18753;DHT22;9505;50.882;5.350;2022-12-24T01:23:30;11.00;99.90
18753;DHT22;9505;50.882;5.350;2022-12-24T01:25:59;11.00;99.90
18753;DHT22;9505;50.882;5.350;2022-12-24T01:28:25;11.00;99.90
18753;DHT22;9505;50.882;5.350;2022-12-24T01:30:50;11.00;99.90
18753;DHT22;9505;50.882;5.350;2022-12-24T01:33:16;10.90;99.90
18753;DHT22;9505;50.882;5.350;2022-12-24T01:35:42;11.00;99.90
18753;DHT22;9505;50.882;5.350;2022-12-24T01:38:08;10.90;99.90
18753;DHT22;9505;50.882;5.350;2022-12-24T01:40:36;10.80;99.90
18753;DHT22;9505;50.882;5.350;2022-12-24T01:43:21;10.60;99.90
18753;DHT22;9505;50.882;5.350;2022-12-24T01:53:50;10.50;99.90
18753;DHT22;9505;50.882;5.350;2022-12-24T01:56:17;10.40;99.90
18753;DHT22;9505;50.882;5.350;2022-12-24T01:58:47;10.40;99.90
18753;DHT22;9505;50.882;5.350;2022-12-24T02:01:15;10.40;99.90
18753;DHT22;9505;50.882;5.350;2022-12-24T02:03:41;10.40;99.90
18753;DHT22;9505;50.882;5.350;2022-12-24T02:06:07;10.40;99.90
18753;DHT22;9505;50.882;5.350;2022-12-24T02:08:33;10.30;99.90
18753;DHT22;9505;50.882;5.350;2022-12-24T02:11:09;10.30;99.90
18753;DHT22;9505;50.882;5.350;2022-12-24T02:13:35;10.30;99.90
18753;DHT22;9505;50.882;5.350;2022-12-24T02:21:27;10.10;99.90
18753;DHT22;9505;50.882;5.350;2022-12-24T02:37:56;9.80;99.90
18753;DHT22;9505;50.882;5.350;2022-12-24T02:40:27;9.80;99.90
18753;DHT22;9505;50.882;5.350;2022-12-24T02:42:57;9.70;99.90
18753;DHT22;9505;50.882;5.350;2022-12-24T02:45:30;9.80;99.90
18753;DHT22;9505;50.882;5.350;2022-12-24T02:47:56;9.80;99.90
18753;DHT22;9505;50.882;5.350;2022-12-24T02:50:23;9.60;99.90
18753;DHT22;9505;50.882;5.350;2022-12-24T02:52:49;9.60;99.90
18753;DHT22;9505;50.882;5.350;2022-12-24T02:55:58;9.60;99.90
18753;DHT22;9505;50.882;5.350;2022-12-24T03:01:16;9.40;99.90
18753;DHT22;9505;50.882;5.350;2022-12-24T03:06:43;9.60;99.90
18753;DHT22;9505;50.882;5.350;2022-12-24T03:12:31;9.70;99.90
18753;DHT22;9505;50.882;5.350;2022-12-24T03:14:58;9.70;99.90
18753;DHT22;9505;50.882;5.350;2022-12-24T03:17:25;9.70;99.90
18753;DHT22;9505;50.882;5.350;2022-12-24T03:19:52;9.80;99.90
18753;DHT22;9505;50.882;5.350;2022-12-24T03:22:19;9.80;99.90
18753;DHT22;9505;50.882;5.350;2022-12-24T03:24:45;9.80;99.90
18753;DHT22;9505;50.882;5.350;2022-12-24T03:27:11;9.90;99.90
18753;DHT22;9505;50.882;5.350;2022-12-24T03:29:39;9.90;99.90
18753;DHT22;9505;50.882;5.350;2022-12-24T03:32:05;10.00;99.90
18753;DHT22;9505;50.882;5.350;2022-12-24T03:34:31;10.00;99.90
18753;DHT22;9505;50.882;5.350;2022-12-24T03:36:56;9.90;99.90
18753;DHT22;9505;50.882;5.350;2022-12-24T03:39:22;9.90;99.90
18753;DHT22;9505;50.882;5.350;2022-12-24T03:41:48;10.00;99.90
18753;DHT22;9505;50.882;5.350;2022-12-24T03:44:14;10.00;99.90
18753;DHT22;9505;50.882;5.350;2022-12-24T03:46:39;10.00;99.90
18753;DHT22;9505;50.882;5.350;2022-12-24T03:49:05;10.10;99.90
18753;DHT22;9505;50.882;5.350;2022-12-24T03:51:30;10.10;99.90
18753;DHT22;9505;50.882;5.350;2022-12-24T03:53:58;10.10;99.90
18753;DHT22;9505;50.882;5.350;2022-12-24T03:56:24;10.10;99.90
18753;DHT22;9505;50.882;5.350;2022-12-24T03:58:50;10.10;99.90
18753;DHT22;9505;50.882;5.350;2022-12-24T04:01:16;10.10;99.90
18753;DHT22;9505;50.882;5.350;2022-12-24T04:03:43;10.20;99.90
18753;DHT22;9505;50.882;5.350;2022-12-24T04:06:10;10.20;99.90
18753;DHT22;9505;50.882;5.350;2022-12-24T04:08:37;10.10;99.90
18753;DHT22;9505;50.882;5.350;2022-12-24T04:11:04;10.10;99.90
18753;DHT22;9505;50.882;5.350;2022-12-24T04:13:29;10.10;99.90
18753;DHT22;9505;50.882;5.350;2022-12-24T04:15:59;10.20;99.90
18753;DHT22;9505;50.882;5.350;2022-12-24T04:18:26;10.20;99.90
18753;DHT22;9505;50.882;5.350;2022-12-24T04:20:52;10.20;99.90
18753;DHT22;9505;50.882;5.350;2022-12-24T04:23:18;10.20;99.90
18753;DHT22;9505;50.882;5.350;2022-12-24T04:25:43;10.20;99.90
18753;DHT22;9505;50.882;5.350;2022-12-24T04:28:09;10.10;99.90
18753;DHT22;9505;50.882;5.350;2022-12-24T04:30:37;10.00;99.90
18753;DHT22;9505;50.882;5.350;2022-12-24T04:33:03;9.90;99.90
18753;DHT22;9505;50.882;5.350;2022-12-24T04:35:29;9.90;99.90
18753;DHT22;9505;50.882;5.350;2022-12-24T04:37:55;9.80;99.90
18753;DHT22;9505;50.882;5.350;2022-12-24T04:40:20;9.80;99.90
18753;DHT22;9505;50.882;5.350;2022-12-24T04:42:46;9.80;99.90
18753;DHT22;9505;50.882;5.350;2022-12-24T04:45:11;9.80;99.90
18753;DHT22;9505;50.882;5.350;2022-12-24T04:47:37;9.80;99.90
18753;DHT22;9505;50.882;5.350;2022-12-24T04:50:03;9.80;99.90
18753;DHT22;9505;50.882;5.350;2022-12-24T04:52:29;9.90;99.90
18753;DHT22;9505;50.882;5.350;2022-12-24T04:54:54;9.90;99.90
18753;DHT22;9505;50.882;5.350;2022-12-24T04:57:20;9.90;99.90
18753;DHT22;9505;50.882;5.350;2022-12-24T04:59:45;9.90;99.90
18753;DHT22;9505;50.882;5.350;2022-12-24T05:02:11;9.90;99.90
18753;DHT22;9505;50.882;5.350;2022-12-24T05:04:37;10.00;99.90
18753;DHT22;9505;50.882;5.350;2022-12-24T05:07:02;10.10;99.90
18753;DHT22;9505;50.882;5.350;2022-12-24T05:09:28;10.10;99.90
18753;DHT22;9505;50.882;5.350;2022-12-24T05:11:54;10.10;99.90
18753;DHT22;9505;50.882;5.350;2022-12-24T05:14:19;10.10;99.90
18753;DHT22;9505;50.882;5.350;2022-12-24T05:16:45;10.10;99.90
18753;DHT22;9505;50.882;5.350;2022-12-24T05:19:10;10.10;99.90
18753;DHT22;9505;50.882;5.350;2022-12-24T05:21:36;10.10;99.90
18753;DHT22;9505;50.882;5.350;2022-12-24T05:24:01;10.10;99.90
18753;DHT22;9505;50.882;5.350;2022-12-24T05:26:52;10.10;99.90
18753;DHT22;9505;50.882;5.350;2022-12-24T05:29:17;10.20;99.90
18753;DHT22;9505;50.882;5.350;2022-12-24T05:31:44;10.20;99.90
18753;DHT22;9505;50.882;5.350;2022-12-24T05:34:10;10.20;99.90
18753;DHT22;9505;50.882;5.350;2022-12-24T05:36:36;10.20;99.90
18753;DHT22;9505;50.882;5.350;2022-12-24T05:39:03;10.30;99.90
18753;DHT22;9505;50.882;5.350;2022-12-24T05:41:28;10.30;99.90
18753;DHT22;9505;50.882;5.350;2022-12-24T05:43:54;10.40;99.90
18753;DHT22;9505;50.882;5.350;2022-12-24T05:46:21;10.40;99.90
18753;DHT22;9505;50.882;5.350;2022-12-24T05:48:48;10.30;99.90
18753;DHT22;9505;50.882;5.350;2022-12-24T05:51:15;10.30;99.90
18753;DHT22;9505;50.882;5.350;2022-12-24T05:53:44;10.30;99.90
18753;DHT22;9505;50.882;5.350;2022-12-24T05:56:15;10.20;99.90
18753;DHT22;9505;50.882;5.350;2022-12-24T05:58:42;10.30;99.90
18753;DHT22;9505;50.882;5.350;2022-12-24T06:01:09;10.20;99.90
18753;DHT22;9505;50.882;5.350;2022-12-24T06:03:35;10.20;99.90
18753;DHT22;9505;50.882;5.350;2022-12-24T06:06:08;10.20;99.90
18753;DHT22;9505;50.882;5.350;2022-12-24T06:08:34;10.20;99.90
18753;DHT22;9505;50.882;5.350;2022-12-24T06:11:02;10.30;99.90
18753;DHT22;9505;50.882;5.350;2022-12-24T06:13:29;10.20;99.90
18753;DHT22;9505;50.882;5.350;2022-12-24T06:15:58;10.20;99.90
18753;DHT22;9505;50.882;5.350;2022-12-24T06:18:25;10.20;99.90
18753;DHT22;9505;50.882;5.350;2022-12-24T06:20:51;10.20;99.90
18753;DHT22;9505;50.882;5.350;2022-12-24T06:23:17;10.10;99.90
18753;DHT22;9505;50.882;5.350;2022-12-24T06:25:43;10.00;99.90
18753;DHT22;9505;50.882;5.350;2022-12-24T06:28:08;10.00;99.90
18753;DHT22;9505;50.882;5.350;2022-12-24T06:30:34;9.90;99.90
18753;DHT22;9505;50.882;5.350;2022-12-24T06:33:00;9.90;99.90
18753;DHT22;9505;50.882;5.350;2022-12-24T06:35:25;9.90;99.90
18753;DHT22;9505;50.882;5.350;2022-12-24T06:37:51;9.80;99.90
18753;DHT22;9505;50.882;5.350;2022-12-24T06:40:17;9.80;99.90
18753;DHT22;9505;50.882;5.350;2022-12-24T06:42:42;9.80;99.90
18753;DHT22;9505;50.882;5.350;2022-12-24T06:45:09;9.90;99.90
18753;DHT22;9505;50.882;5.350;2022-12-24T06:47:35;9.80;99.90
18753;DHT22;9505;50.882;5.350;2022-12-24T06:50:00;9.80;99.90
18753;DHT22;9505;50.882;5.350;2022-12-24T06:52:26;9.80;99.90
18753;DHT22;9505;50.882;5.350;2022-12-24T06:54:51;9.80;99.90
18753;DHT22;9505;50.882;5.350;2022-12-24T06:57:17;9.70;99.90
18753;DHT22;9505;50.882;5.350;2022-12-24T06:59:42;9.80;99.90
18753;DHT22;9505;50.882;5.350;2022-12-24T07:02:08;9.90;99.90
18753;DHT22;9505;50.882;5.350;2022-12-24T07:04:34;9.90;99.90
18753;DHT22;9505;50.882;5.350;2022-12-24T07:07:00;10.00;99.90
18753;DHT22;9505;50.882;5.350;2022-12-24T07:09:25;10.00;99.90
18753;DHT22;9505;50.882;5.350;2022-12-24T07:11:51;10.00;99.90
18753;DHT22;9505;50.882;5.350;2022-12-24T07:14:17;10.00;99.90
18753;DHT22;9505;50.882;5.350;2022-12-24T07:16:42;10.00;99.90
18753;DHT22;9505;50.882;5.350;2022-12-24T07:19:08;10.10;99.90
18753;DHT22;9505;50.882;5.350;2022-12-24T07:21:33;10.10;99.90
18753;DHT22;9505;50.882;5.350;2022-12-24T07:23:59;10.10;99.90
18753;DHT22;9505;50.882;5.350;2022-12-24T07:26:24;10.00;99.90
18753;DHT22;9505;50.882;5.350;2022-12-24T07:28:50;10.00;99.90
18753;DHT22;9505;50.882;5.350;2022-12-24T07:31:15;10.00;99.90
18753;DHT22;9505;50.882;5.350;2022-12-24T07:33:41;10.10;99.90
18753;DHT22;9505;50.882;5.350;2022-12-24T07:36:09;10.10;99.90
18753;DHT22;9505;50.882;5.350;2022-12-24T07:38:38;10.10;99.90
18753;DHT22;9505;50.882;5.350;2022-12-24T07:41:04;10.00;99.90
18753;DHT22;9505;50.882;5.350;2022-12-24T07:43:31;10.10;99.90
18753;DHT22;9505;50.882;5.350;2022-12-24T07:45:57;10.10;99.90
18753;DHT22;9505;50.882;5.350;2022-12-24T07:48:24;10.10;99.90
18753;DHT22;9505;50.882;5.350;2022-12-24T07:50:50;10.00;99.90
18753;DHT22;9505;50.882;5.350;2022-12-24T07:53:16;10.00;99.90
18753;DHT22;9505;50.882;5.350;2022-12-24T07:55:43;10.00;99.90
18753;DHT22;9505;50.882;5.350;2022-12-24T07:58:08;10.00;99.90
18753;DHT22;9505;50.882;5.350;2022-12-24T08:00:34;10.10;99.90
18753;DHT22;9505;50.882;5.350;2022-12-24T08:02:59;10.10;99.90
18753;DHT22;9505;50.882;5.350;2022-12-24T08:05:26;10.10;99.90
18753;DHT22;9505;50.882;5.350;2022-12-24T08:07:52;10.00;99.90
18753;DHT22;9505;50.882;5.350;2022-12-24T08:10:18;10.10;99.90
18753;DHT22;9505;50.882;5.350;2022-12-24T08:12:43;10.20;99.90
18753;DHT22;9505;50.882;5.350;2022-12-24T08:15:10;10.30;99.90
18753;DHT22;9505;50.882;5.350;2022-12-24T08:17:36;10.30;99.90
18753;DHT22;9505;50.882;5.350;2022-12-24T08:20:03;10.30;99.90
18753;DHT22;9505;50.882;5.350;2022-12-24T08:22:29;10.30;99.90
18753;DHT22;9505;50.882;5.350;2022-12-24T08:24:55;10.30;99.90
18753;DHT22;9505;50.882;5.350;2022-12-24T08:27:21;10.50;99.90
18753;DHT22;9505;50.882;5.350;2022-12-24T08:29:46;10.50;99.90
18753;DHT22;9505;50.882;5.350;2022-12-24T08:32:12;10.60;99.90
18753;DHT22;9505;50.882;5.350;2022-12-24T08:34:37;10.60;99.90
18753;DHT22;9505;50.882;5.350;2022-12-24T08:37:03;10.50;99.90
18753;DHT22;9505;50.882;5.350;2022-12-24T08:39:28;10.60;99.90
18753;DHT22;9505;50.882;5.350;2022-12-24T08:41:55;10.70;99.90
18753;DHT22;9505;50.882;5.350;2022-12-24T08:44:20;10.70;99.90
18753;DHT22;9505;50.882;5.350;2022-12-24T08:46:46;10.80;99.90
18753;DHT22;9505;50.882;5.350;2022-12-24T08:49:12;10.90;99.90
18753;DHT22;9505;50.882;5.350;2022-12-24T08:51:37;10.90;99.90
18753;DHT22;9505;50.882;5.350;2022-12-24T08:54:03;10.90;99.90
18753;DHT22;9505;50.882;5.350;2022-12-24T08:56:29;11.00;99.90
18753;DHT22;9505;50.882;5.350;2022-12-24T08:58:54;11.10;99.90
18753;DHT22;9505;50.882;5.350;2022-12-24T09:01:20;11.20;99.90
18753;DHT22;9505;50.882;5.350;2022-12-24T09:03:46;11.00;99.90
18753;DHT22;9505;50.882;5.350;2022-12-24T09:06:13;11.10;99.90
18753;DHT22;9505;50.882;5.350;2022-12-24T09:08:39;11.10;99.90
18753;DHT22;9505;50.882;5.350;2022-12-24T09:11:07;11.20;99.90
18753;DHT22;9505;50.882;5.350;2022-12-24T09:13:33;11.20;99.90
18753;DHT22;9505;50.882;5.350;2022-12-24T09:15:58;11.20;99.90
18753;DHT22;9505;50.882;5.350;2022-12-24T09:18:24;11.40;99.90
18753;DHT22;9505;50.882;5.350;2022-12-24T09:20:50;11.70;99.90
18753;DHT22;9505;50.882;5.350;2022-12-24T09:23:16;11.90;99.90
18753;DHT22;9505;50.882;5.350;2022-12-24T09:25:42;12.20;99.90
18753;DHT22;9505;50.882;5.350;2022-12-24T09:28:09;11.80;99.90
18753;DHT22;9505;50.882;5.350;2022-12-24T09:30:36;11.60;99.90
18753;DHT22;9505;50.882;5.350;2022-12-24T09:33:02;11.60;99.90
18753;DHT22;9505;50.882;5.350;2022-12-24T09:35:27;11.60;99.90
18753;DHT22;9505;50.882;5.350;2022-12-24T09:37:53;11.60;99.90
18753;DHT22;9505;50.882;5.350;2022-12-24T09:40:33;11.50;99.90
18753;DHT22;9505;50.882;5.350;2022-12-24T09:43:05;11.50;99.90
18753;DHT22;9505;50.882;5.350;2022-12-24T09:45:37;11.40;99.90
18753;DHT22;9505;50.882;5.350;2022-12-24T09:48:16;11.40;99.90
18753;DHT22;9505;50.882;5.350;2022-12-24T09:50:49;11.40;99.90
18753;DHT22;9505;50.882;5.350;2022-12-24T09:56:16;11.60;99.90
18753;DHT22;9505;50.882;5.350;2022-12-24T09:59:08;11.50;99.90
18753;DHT22;9505;50.882;5.350;2022-12-24T10:01:33;11.40;99.90
18753;DHT22;9505;50.882;5.350;2022-12-24T10:04:06;11.50;99.90
18753;DHT22;9505;50.882;5.350;2022-12-24T10:09:20;11.70;99.90
18753;DHT22;9505;50.882;5.350;2022-12-24T10:15:06;11.80;99.90
18753;DHT22;9505;50.882;5.350;2022-12-24T10:20:47;11.90;99.90
18753;DHT22;9505;50.882;5.350;2022-12-24T10:23:51;11.90;99.90
18753;DHT22;9505;50.882;5.350;2022-12-24T10:29:14;11.80;99.90
18753;DHT22;9505;50.882;5.350;2022-12-24T10:31:54;11.90;99.90
18753;DHT22;9505;50.882;5.350;2022-12-24T10:34:23;11.90;99.90
18753;DHT22;9505;50.882;5.350;2022-12-24T10:36:52;11.90;99.90
18753;DHT22;9505;50.882;5.350;2022-12-24T10:39:20;12.10;99.90
18753;DHT22;9505;50.882;5.350;2022-12-24T10:41:50;12.10;99.90
18753;DHT22;9505;50.882;5.350;2022-12-24T10:44:18;12.10;99.90
18753;DHT22;9505;50.882;5.350;2022-12-24T10:46:46;12.10;99.90
18753;DHT22;9505;50.882;5.350;2022-12-24T10:49:16;12.10;99.90
18753;DHT22;9505;50.882;5.350;2022-12-24T10:51:55;12.00;99.90
18753;DHT22;9505;50.882;5.350;2022-12-24T10:54:25;12.10;99.90
18753;DHT22;9505;50.882;5.350;2022-12-24T10:56:55;12.30;99.90
18753;DHT22;9505;50.882;5.350;2022-12-24T10:59:27;12.20;99.90
18753;DHT22;9505;50.882;5.350;2022-12-24T11:01:54;12.30;99.90
18753;DHT22;9505;50.882;5.350;2022-12-24T11:04:22;12.30;99.90
18753;DHT22;9505;50.882;5.350;2022-12-24T11:06:57;12.30;99.90
18753;DHT22;9505;50.882;5.350;2022-12-24T11:09:33;12.20;99.90
18753;DHT22;9505;50.882;5.350;2022-12-24T11:12:02;12.30;99.90
18753;DHT22;9505;50.882;5.350;2022-12-24T11:14:33;12.20;99.90
18753;DHT22;9505;50.882;5.350;2022-12-24T11:16:59;12.10;99.90
18753;DHT22;9505;50.882;5.350;2022-12-24T11:19:46;12.00;99.90
18753;DHT22;9505;50.882;5.350;2022-12-24T11:22:26;12.20;99.90
18753;DHT22;9505;50.882;5.350;2022-12-24T11:25:05;12.30;99.90
18753;DHT22;9505;50.882;5.350;2022-12-24T11:27:43;12.20;99.90
18753;DHT22;9505;50.882;5.350;2022-12-24T11:32:50;12.20;99.90
18753;DHT22;9505;50.882;5.350;2022-12-24T11:35:33;12.20;99.90
18753;DHT22;9505;50.882;5.350;2022-12-24T11:41:10;12.60;99.90
18753;DHT22;9505;50.882;5.350;2022-12-24T11:43:41;12.80;99.90
18753;DHT22;9505;50.882;5.350;2022-12-24T11:48:44;12.80;99.90
18753;DHT22;9505;50.882;5.350;2022-12-24T11:51:22;12.70;99.90
18753;DHT22;9505;50.882;5.350;2022-12-24T11:54:20;12.60;99.90
18753;DHT22;9505;50.882;5.350;2022-12-24T11:56:50;12.50;99.90
18753;DHT22;9505;50.882;5.350;2022-12-24T11:59:41;12.40;99.90
18753;DHT22;9505;50.882;5.350;2022-12-24T12:04:35;12.50;99.90
18753;DHT22;9505;50.882;5.350;2022-12-24T12:07:21;12.70;99.90
18753;DHT22;9505;50.882;5.350;2022-12-24T12:09:56;12.70;99.90
18753;DHT22;9505;50.882;5.350;2022-12-24T12:12:30;12.70;99.90
18753;DHT22;9505;50.882;5.350;2022-12-24T12:15:02;12.90;99.90
18753;DHT22;9505;50.882;5.350;2022-12-24T12:17:43;12.90;99.90
18753;DHT22;9505;50.882;5.350;2022-12-24T12:20:31;12.70;99.90
18753;DHT22;9505;50.882;5.350;2022-12-24T12:23:18;12.80;99.90
18753;DHT22;9505;50.882;5.350;2022-12-24T12:25:57;12.90;99.90
18753;DHT22;9505;50.882;5.350;2022-12-24T12:30:59;13.20;99.90
18753;DHT22;9505;50.882;5.350;2022-12-24T12:33:47;13.40;99.90
18753;DHT22;9505;50.882;5.350;2022-12-24T12:36:19;13.50;99.90
18753;DHT22;9505;50.882;5.350;2022-12-24T12:38:45;13.70;99.90
18753;DHT22;9505;50.882;5.350;2022-12-24T12:52:04;12.80;99.90
18753;DHT22;9505;50.882;5.350;2022-12-24T12:54:50;12.80;99.90
18753;DHT22;9505;50.882;5.350;2022-12-24T12:57:21;12.70;99.90
18753;DHT22;9505;50.882;5.350;2022-12-24T13:00:08;12.70;99.90
18753;DHT22;9505;50.882;5.350;2022-12-24T13:22:21;14.10;99.90
18753;DHT22;9505;50.882;5.350;2022-12-24T13:24:49;14.10;99.90
18753;DHT22;9505;50.882;5.350;2022-12-24T13:29:50;14.50;99.90
18753;DHT22;9505;50.882;5.350;2022-12-24T13:34:52;14.60;99.90
18753;DHT22;9505;50.882;5.350;2022-12-24T13:47:55;13.50;99.90
18753;DHT22;9505;50.882;5.350;2022-12-24T13:50:47;13.60;99.90
18753;DHT22;9505;50.882;5.350;2022-12-24T13:58:26;13.30;99.90
18753;DHT22;9505;50.882;5.350;2022-12-24T14:00:58;13.10;99.90
18753;DHT22;9505;50.882;5.350;2022-12-24T14:03:28;12.80;99.90
18753;DHT22;9505;50.882;5.350;2022-12-24T14:06:01;12.90;99.90
18753;DHT22;9505;50.882;5.350;2022-12-24T14:08:42;12.80;99.90
18753;DHT22;9505;50.882;5.350;2022-12-24T14:11:19;12.80;99.90
18753;DHT22;9505;50.882;5.350;2022-12-24T14:21:33;12.60;99.90
18753;DHT22;9505;50.882;5.350;2022-12-24T14:24:09;12.50;99.90
18753;DHT22;9505;50.882;5.350;2022-12-24T14:26:48;12.40;99.90
18753;DHT22;9505;50.882;5.350;2022-12-24T14:29:30;12.50;99.90
18753;DHT22;9505;50.882;5.350;2022-12-24T14:31:58;12.50;99.90
18753;DHT22;9505;50.882;5.350;2022-12-24T14:34:25;12.50;99.90
18753;DHT22;9505;50.882;5.350;2022-12-24T14:36:54;12.60;99.90
18753;DHT22;9505;50.882;5.350;2022-12-24T14:39:31;12.50;99.90
18753;DHT22;9505;50.882;5.350;2022-12-24T14:42:24;12.50;99.90
18753;DHT22;9505;50.882;5.350;2022-12-24T14:48:02;12.50;99.90
18753;DHT22;9505;50.882;5.350;2022-12-24T14:51:05;12.40;99.90
18753;DHT22;9505;50.882;5.350;2022-12-24T14:53:59;12.30;99.90
18753;DHT22;9505;50.882;5.350;2022-12-24T14:56:27;12.20;99.90
18753;DHT22;9505;50.882;5.350;2022-12-24T14:58:52;12.10;99.90
18753;DHT22;9505;50.882;5.350;2022-12-24T15:01:25;12.00;99.90
18753;DHT22;9505;50.882;5.350;2022-12-24T15:04:12;12.00;99.90
18753;DHT22;9505;50.882;5.350;2022-12-24T15:06:50;11.90;99.90
18753;DHT22;9505;50.882;5.350;2022-12-24T15:09:22;11.90;99.90
18753;DHT22;9505;50.882;5.350;2022-12-24T15:11:50;11.80;99.90
18753;DHT22;9505;50.882;5.350;2022-12-24T15:14:18;11.80;99.90
18753;DHT22;9505;50.882;5.350;2022-12-24T15:17:03;11.70;99.90
18753;DHT22;9505;50.882;5.350;2022-12-24T15:19:35;11.50;99.90
18753;DHT22;9505;50.882;5.350;2022-12-24T15:22:02;11.40;99.90
18753;DHT22;9505;50.882;5.350;2022-12-24T15:24:34;11.30;99.90
18753;DHT22;9505;50.882;5.350;2022-12-24T15:27:02;11.20;99.90
18753;DHT22;9505;50.882;5.350;2022-12-24T15:29:42;11.00;99.90
18753;DHT22;9505;50.882;5.350;2022-12-24T15:32:14;11.00;99.90
18753;DHT22;9505;50.882;5.350;2022-12-24T15:34:42;10.90;99.90
18753;DHT22;9505;50.882;5.350;2022-12-24T15:37:21;10.80;99.90
18753;DHT22;9505;50.882;5.350;2022-12-24T15:39:59;10.80;99.90
18753;DHT22;9505;50.882;5.350;2022-12-24T15:42:26;10.80;99.90
18753;DHT22;9505;50.882;5.350;2022-12-24T15:45:03;10.90;99.90
18753;DHT22;9505;50.882;5.350;2022-12-24T15:47:43;11.00;99.90
18753;DHT22;9505;50.882;5.350;2022-12-24T15:52:41;11.10;99.90
18753;DHT22;9505;50.882;5.350;2022-12-24T15:55:39;11.10;99.90
18753;DHT22;9505;50.882;5.350;2022-12-24T15:58:25;11.00;99.90
18753;DHT22;9505;50.882;5.350;2022-12-24T16:03:54;10.70;99.90
18753;DHT22;9505;50.882;5.350;2022-12-24T16:06:21;10.50;99.90
18753;DHT22;9505;50.882;5.350;2022-12-24T16:08:47;10.40;99.90
18753;DHT22;9505;50.882;5.350;2022-12-24T16:11:23;10.30;99.90
18753;DHT22;9505;50.882;5.350;2022-12-24T16:16:36;10.20;99.90
18753;DHT22;9505;50.882;5.350;2022-12-24T16:19:03;10.20;99.90
18753;DHT22;9505;50.882;5.350;2022-12-24T16:24:11;10.30;99.90
18753;DHT22;9505;50.882;5.350;2022-12-24T16:26:38;10.30;99.90
18753;DHT22;9505;50.882;5.350;2022-12-24T16:29:04;10.20;99.90
18753;DHT22;9505;50.882;5.350;2022-12-24T16:31:36;10.10;99.90
18753;DHT22;9505;50.882;5.350;2022-12-24T16:34:04;10.00;99.90
18753;DHT22;9505;50.882;5.350;2022-12-24T16:36:30;9.90;99.90
18753;DHT22;9505;50.882;5.350;2022-12-24T16:38:59;9.80;99.90
18753;DHT22;9505;50.882;5.350;2022-12-24T16:41:43;9.80;99.90
18753;DHT22;9505;50.882;5.350;2022-12-24T16:44:27;9.70;99.90
18753;DHT22;9505;50.882;5.350;2022-12-24T16:46:53;9.60;99.90
18753;DHT22;9505;50.882;5.350;2022-12-24T16:49:21;9.60;99.90
18753;DHT22;9505;50.882;5.350;2022-12-24T16:51:47;9.60;99.90
18753;DHT22;9505;50.882;5.350;2022-12-24T16:54:14;9.60;99.90
18753;DHT22;9505;50.882;5.350;2022-12-24T16:56:43;9.60;99.90
18753;DHT22;9505;50.882;5.350;2022-12-24T16:59:19;9.60;99.90
18753;DHT22;9505;50.882;5.350;2022-12-24T17:01:45;9.80;99.90
18753;DHT22;9505;50.882;5.350;2022-12-24T17:04:11;9.80;99.90
18753;DHT22;9505;50.882;5.350;2022-12-24T17:06:36;9.80;99.90
18753;DHT22;9505;50.882;5.350;2022-12-24T17:09:02;9.80;99.90
18753;DHT22;9505;50.882;5.350;2022-12-24T17:11:28;9.80;99.90
18753;DHT22;9505;50.882;5.350;2022-12-24T17:13:53;9.80;99.90
18753;DHT22;9505;50.882;5.350;2022-12-24T17:16:19;9.80;99.90
18753;DHT22;9505;50.882;5.350;2022-12-24T17:18:45;9.70;99.90
18753;DHT22;9505;50.882;5.350;2022-12-24T17:21:10;9.70;99.90
18753;DHT22;9505;50.882;5.350;2022-12-24T17:23:39;9.60;99.90
18753;DHT22;9505;50.882;5.350;2022-12-24T17:26:06;9.60;99.90
18753;DHT22;9505;50.882;5.350;2022-12-24T17:28:31;9.50;99.90
18753;DHT22;9505;50.882;5.350;2022-12-24T17:30:57;9.50;99.90
18753;DHT22;9505;50.882;5.350;2022-12-24T17:33:23;9.40;99.90
18753;DHT22;9505;50.882;5.350;2022-12-24T17:35:49;9.30;99.90
18753;DHT22;9505;50.882;5.350;2022-12-24T17:38:16;9.20;99.90
18753;DHT22;9505;50.882;5.350;2022-12-24T17:40:42;9.10;99.90
18753;DHT22;9505;50.882;5.350;2022-12-24T17:43:08;9.10;99.90
18753;DHT22;9505;50.882;5.350;2022-12-24T17:45:39;9.00;99.90
18753;DHT22;9505;50.882;5.350;2022-12-24T17:48:05;9.00;99.90
18753;DHT22;9505;50.882;5.350;2022-12-24T17:50:31;9.00;99.90
18753;DHT22;9505;50.882;5.350;2022-12-24T17:52:56;9.00;99.90
18753;DHT22;9505;50.882;5.350;2022-12-24T17:55:22;9.00;99.90
18753;DHT22;9505;50.882;5.350;2022-12-24T17:57:48;9.00;99.90
18753;DHT22;9505;50.882;5.350;2022-12-24T18:00:14;9.00;99.90
18753;DHT22;9505;50.882;5.350;2022-12-24T18:02:40;9.00;99.90
18753;DHT22;9505;50.882;5.350;2022-12-24T18:05:06;8.90;99.90
18753;DHT22;9505;50.882;5.350;2022-12-24T18:07:31;8.90;99.90
18753;DHT22;9505;50.882;5.350;2022-12-24T18:09:57;8.90;99.90
18753;DHT22;9505;50.882;5.350;2022-12-24T18:12:23;9.00;99.90
18753;DHT22;9505;50.882;5.350;2022-12-24T18:14:48;9.00;99.90
18753;DHT22;9505;50.882;5.350;2022-12-24T18:17:14;9.10;99.90
18753;DHT22;9505;50.882;5.350;2022-12-24T18:19:39;9.20;99.90